Time;durP1;ratioP1;P1;durP2;ratioP2;P2;SDS_P1;SDS_P2;PMS_P1;PMS_P2;Temp;Humidity;BMP_temperature;BMP_pressure;BME280_temperature;BME280_humidity;BME280_pressure;Samples;Min_cycle;Max_cycle;Signal;HPM_P1;HPM_P2
2020/12/18 00:02:28;;;;;;;8.30;3.35;;;21.00;97.80;;;;;;6222646;23;20016;-82
2020/12/18 00:04:59;;;;;;;9.00;3.63;;;21.00;97.90;;;;;;6222852;23;20016;-82
2020/12/18 00:07:36;;;;;;;;;;;21.00;98.00;;;;;;6252775;23;20050;-82
2020/12/18 00:10:26;;;;;;;9.73;3.65;;;20.90;98.00;;;;;;6222260;23;19911;-82
2020/12/18 00:13:09;;;;;;;8.73;3.28;;;20.90;98.00;;;;;;6218829;23;20020;-80
2020/12/18 00:15:37;;;;;;;12.07;3.92;;;20.90;98.10;;;;;;6245870;23;20012;-80
2020/12/18 00:18:17;;;;;;;8.98;3.35;;;20.80;98.10;;;;;;6218753;23;20031;-80
2020/12/18 00:20:57;;;;;;;9.10;3.55;;;20.80;98.20;;;;;;6216686;23;20012;-80
2020/12/18 00:23:36;;;;;;;7.97;3.10;;;20.80;98.20;;;;;;6219082;23;20378;-81
2020/12/18 00:26:33;;;;;;;10.57;3.55;;;20.70;98.30;;;;;;6245699;23;20032;-82
2020/12/18 00:29:17;;;;;;;9.68;3.65;;;20.80;98.40;;;;;;6194027;23;20012;-82
2020/12/18 00:32:01;;;;;;;;;;;;;;;;;;;;;
2020/12/18 00:34:43;;;;;;;11.98;3.58;;;20.70;98.40;;;;;;6247863;23;20067;-82
2020/12/18 00:37:40;;;;;;;10.00;3.30;;;20.70;98.40;;;;;;6260890;23;20026;-81
2020/12/18 00:40:18;;;;;;;6.63;3.22;;;20.80;98.30;;;;;;6255323;22;20015;-81
2020/12/18 00:43:01;;;;;;;10.43;3.88;;;20.80;98.30;;;;;;6256196;22;20029;-79
2020/12/18 00:45:29;;;;;;;10.77;3.70;;;20.80;98.30;;;;;;6230016;22;20008;-79
2020/12/18 00:47:56;;;;;;;9.60;3.10;;;20.80;98.20;;;;;;6291880;22;20015;-79
2020/12/18 00:50:31;;;;;;;9.93;4.10;;;20.90;98.20;;;;;;6240940;22;20054;-81
2020/12/18 00:53:01;;;;;;;9.60;3.50;;;20.90;98.10;;;;;;6232467;22;20016;-82
2020/12/18 00:55:28;;;;;;;12.32;3.78;;;21.00;98.00;;;;;;6255484;22;20456;-81
2020/12/18 00:57:59;;;;;;;11.73;3.72;;;21.00;98.10;;;;;;6230944;22;20020;-82
2020/12/18 01:00:29;;;;;;;6.60;2.75;;;21.00;97.80;;;;;;6230465;22;20050;-82
2020/12/18 01:03:06;;;;;;;7.80;3.83;;;21.00;97.70;;;;;;6256860;22;20008;-81
2020/12/18 01:05:35;;;;;;;9.35;3.70;;;21.10;97.70;;;;;;6278511;22;20015;-81
2020/12/18 01:08:03;;;;;;;8.85;3.20;;;21.10;97.60;;;;;;6253707;22;20019;-81
2020/12/18 01:10:32;;;;;;;9.38;3.22;;;21.10;97.50;;;;;;6266465;22;20008;-79
2020/12/18 01:13:00;;;;;;;10.02;3.42;;;21.10;97.50;;;;;;6270808;22;20022;-80
2020/12/18 01:15:32;;;;;;;8.63;3.40;;;21.10;97.40;;;;;;6263610;22;20011;-80
2020/12/18 01:18:08;;;;;;;9.32;3.40;;;21.10;97.40;;;;;;6275968;22;20012;-80
2020/12/18 01:20:39;;;;;;;7.72;2.92;;;21.10;97.70;;;;;;6258221;22;20016;-82
2020/12/18 01:23:06;;;;;;;8.63;3.30;;;21.10;97.40;;;;;;6268756;22;20022;-81
2020/12/18 01:25:35;;;;;;;7.53;2.90;;;21.00;97.40;;;;;;6264346;22;20045;-79
2020/12/18 01:28:05;;;;;;;5.88;2.83;;;21.00;97.50;;;;;;6237008;22;20026;-79
2020/12/18 01:30:35;;;;;;;9.43;3.63;;;20.90;97.60;;;;;;6260107;22;20011;-79
2020/12/18 01:33:02;;;;;;;7.57;3.20;;;20.90;97.70;;;;;;6237160;22;20022;-79
2020/12/18 01:35:32;;;;;;;9.98;3.13;;;20.80;97.70;;;;;;6266122;22;20022;-81
2020/12/18 01:38:04;;;;;;;9.65;3.05;;;20.80;97.80;;;;;;6257524;22;20012;-82
2020/12/18 01:40:34;;;;;;;8.00;3.03;;;20.70;97.90;;;;;;6259199;22;20385;-82
2020/12/18 01:43:04;;;;;;;9.43;3.25;;;20.80;97.90;;;;;;6252405;22;20331;-81
2020/12/18 01:45:32;;;;;;;8.80;3.10;;;20.70;98.00;;;;;;6257952;22;20465;-82
2020/12/18 01:48:12;;;;;;;9.15;3.47;;;20.70;98.00;;;;;;6256715;22;20074;-80
2020/12/18 01:50:50;;;;;;;8.20;3.22;;;20.60;98.10;;;;;;6233735;22;20019;-80
2020/12/18 01:53:21;;;;;;;7.35;2.95;;;20.60;98.10;;;;;;6264230;22;20029;-79
2020/12/18 01:56:09;;;;;;;6.78;2.80;;;20.50;98.10;;;;;;6268621;22;20026;-81
2020/12/18 01:58:43;;;;;;;8.48;3.33;;;20.50;98.10;;;;;;6265530;22;20008;-80
2020/12/18 02:01:18;;;;;;;8.55;3.03;;;20.50;98.20;;;;;;6260405;22;20018;-80
2020/12/18 02:04:01;;;;;;;8.00;3.58;;;20.50;98.20;;;;;;6257535;22;20016;-80
2020/12/18 02:06:54;;;;;;;11.30;3.78;;;20.50;98.30;;;;;;6298027;22;20012;-81
2020/12/18 02:09:27;;;;;;;10.00;3.17;;;20.40;98.30;;;;;;6232374;22;20016;-81
2020/12/18 02:12:06;;;;;;;7.13;2.85;;;20.40;98.30;;;;;;6257628;22;20450;-81
2020/12/18 02:14:37;;;;;;;9.07;3.42;;;20.40;98.40;;;;;;6257271;22;20022;-82
2020/12/18 02:17:05;;;;;;;9.25;3.50;;;20.40;98.50;;;;;;6231980;22;20022;-80
2020/12/18 02:19:44;;;;;;;9.10;3.33;;;20.40;98.50;;;;;;6241549;22;20023;-79
2020/12/18 02:22:22;;;;;;;8.77;3.13;;;20.30;98.50;;;;;;6260739;22;20015;-81
2020/12/18 02:25:12;;;;;;;7.22;3.03;;;20.40;98.50;;;;;;6251067;22;20021;-80
2020/12/18 02:27:41;;;;;;;7.45;3.25;;;20.40;98.50;;;;;;6263413;22;20011;-80
2020/12/18 02:30:17;;;;;;;6.38;2.90;;;20.40;98.40;;;;;;6254031;22;20016;-81
2020/12/18 02:33:18;;;;;;;7.03;3.03;;;20.40;98.30;;;;;;6252823;22;20016;-82
2020/12/18 02:36:00;;;;;;;9.82;3.75;;;20.50;98.20;;;;;;6232155;22;20342;-80
2020/12/18 02:38:30;;;;;;;8.68;3.33;;;20.50;98.20;;;;;;6229370;22;20509;-80
2020/12/18 02:40:58;;;;;;;7.95;2.80;;;20.50;98.10;;;;;;6255882;22;20018;-80
2020/12/18 02:43:49;;;;;;;5.95;2.67;;;20.50;98.10;;;;;;6234450;22;20020;-79
2020/12/18 02:46:18;;;;;;;12.82;3.65;;;20.50;98.00;;;;;;6254836;22;20019;-79
2020/12/18 02:48:48;;;;;;;6.60;2.75;;;20.50;98.00;;;;;;6258125;22;20022;-78
2020/12/18 02:51:31;;;;;;;8.32;2.88;;;20.50;98.00;;;;;;6261983;22;20045;-79
2020/12/18 02:54:21;;;;;;;10.32;3.00;;;20.50;97.90;;;;;;6263484;22;20022;-78
2020/12/18 02:57:15;;;;;;;6.88;2.70;;;20.60;97.90;;;;;;6262376;22;20030;-79
2020/12/18 02:59:48;;;;;;;9.60;3.00;;;20.60;97.90;;;;;;6273475;22;20020;-80
2020/12/18 03:02:16;;;;;;;8.15;2.97;;;20.60;97.90;;;;;;6261576;22;20244;-80
2020/12/18 03:04:45;;;;;;;8.00;3.10;;;20.60;97.90;;;;;;6284098;22;20024;-78
2020/12/18 03:07:31;;;;;;;7.80;2.80;;;20.50;97.90;;;;;;6293440;22;20025;-81
2020/12/18 03:09:58;;;;;;;5.13;2.70;;;20.50;97.90;;;;;;6256440;22;20020;-80
2020/12/18 03:12:25;;;;;;;7.15;3.15;;;20.50;97.90;;;;;;6256030;22;20472;-80
2020/12/18 03:14:53;;;;;;;;;;;20.50;97.90;;;;;;6253154;22;20011;-81
2020/12/18 03:17:40;;;;;;;7.18;2.63;;;20.50;97.90;;;;;;6263323;22;20560;-80
2020/12/18 03:20:16;;;;;;;5.82;2.70;;;20.50;98.00;;;;;;6269433;22;20022;-80
2020/12/18 03:23:19;;;;;;;8.48;2.90;;;20.50;98.00;;;;;;6159278;23;20032;-80
2020/12/18 03:26:22;;;;;;;8.07;2.85;;;20.50;98.00;;;;;;6147629;22;20021;-81
2020/12/18 03:28:56;;;;;;;7.03;3.25;;;20.50;98.00;;;;;;6231568;22;20021;-81
2020/12/18 03:31:29;;;;;;;9.45;3.55;;;20.40;98.00;;;;;;6255865;22;20012;-80
2020/12/18 03:34:21;;;;;;;9.27;3.80;;;20.40;98.00;;;;;;6256083;22;20011;-81
2020/12/18 03:36:53;;;;;;;6.57;2.70;;;20.40;98.00;;;;;;6256274;22;20433;-79
2020/12/18 03:39:26;;;;;;;6.63;3.00;;;20.40;98.10;;;;;;6257698;22;20011;-78
2020/12/18 03:42:22;;;;;;;6.57;2.80;;;20.40;98.10;;;;;;6274693;22;20030;-82
2020/12/18 03:44:53;;;;;;;8.05;2.92;;;20.30;98.20;;;;;;6245871;22;20004;-79
2020/12/18 03:47:42;;;;;;;6.03;2.80;;;20.30;98.20;;;;;;6309884;22;20026;-79
2020/12/18 03:50:26;;;;;;;7.15;2.83;;;20.30;98.30;;;;;;6248738;22;20012;-80
2020/12/18 03:53:24;;;;;;;5.88;2.50;;;20.20;98.30;;;;;;6271133;22;20022;-81
2020/12/18 03:56:10;;;;;;;5.63;2.70;;;20.20;98.40;;;;;;6260011;22;20331;-81
2020/12/18 03:58:46;;;;;;;8.85;3.38;;;20.20;98.40;;;;;;6230608;22;20023;-82
2020/12/18 04:01:35;;;;;;;8.93;3.38;;;20.10;98.40;;;;;;6257003;22;20012;-80
2020/12/18 04:04:05;;;;;;;6.13;2.80;;;20.20;98.40;;;;;;6256292;22;20439;-80
2020/12/18 04:06:33;;;;;;;8.52;3.22;;;20.20;98.40;;;;;;6265513;22;20007;-83
2020/12/18 04:09:00;;;;;;;6.72;2.40;;;20.30;98.30;;;;;;6234457;22;20042;-81
2020/12/18 04:11:41;;;;;;;6.50;2.78;;;20.30;98.20;;;;;;6267266;22;20322;-81
2020/12/18 04:14:19;;;;;;;7.93;2.95;;;20.30;98.20;;;;;;6254921;22;20012;-81
2020/12/18 04:16:55;;;;;;;9.13;3.08;;;20.30;98.10;;;;;;6257217;22;20026;-81
2020/12/18 04:19:22;;;;;;;7.63;3.03;;;20.30;98.00;;;;;;6255930;22;20331;-82
2020/12/18 04:21:51;;;;;;;8.50;2.65;;;20.30;98.00;;;;;;6230628;22;20331;-81
2020/12/18 04:24:41;;;;;;;5.32;2.47;;;20.30;98.00;;;;;;6259105;22;20020;-81
2020/12/18 04:27:09;;;;;;;;;;;20.30;97.90;;;;;;6254977;22;20015;-81
2020/12/18 04:29:36;;;;;;;8.63;2.72;;;20.30;97.90;;;;;;6250386;22;19915;-81
2020/12/18 04:32:04;;;;;;;7.90;3.30;;;20.30;97.90;;;;;;6225983;22;20307;-79
2020/12/18 04:34:34;;;;;;;6.55;2.80;;;20.30;97.90;;;;;;6226860;22;20016;-78
2020/12/18 04:37:24;;;;;;;6.75;3.00;;;20.30;97.90;;;;;;6294390;22;20143;-79
2020/12/18 04:40:06;;;;;;;8.23;2.97;;;20.20;98.00;;;;;;6246487;22;20026;-79
2020/12/18 04:42:45;;;;;;;4.85;2.63;;;20.10;98.00;;;;;;6241793;22;20038;-79
2020/12/18 04:45:12;;;;;;;7.10;2.80;;;20.10;98.10;;;;;;6259371;22;20038;-79
2020/12/18 04:47:48;;;;;;;6.90;2.63;;;20.10;98.20;;;;;;6256531;22;20020;-80
2020/12/18 04:50:16;;;;;;;8.57;3.67;;;20.10;98.20;;;;;;6269164;22;20008;-81
2020/12/18 04:53:04;;;;;;;;;;;20.00;98.20;;;;;;6276783;22;20019;-82
2020/12/18 04:55:47;;;;;;;11.43;3.22;;;20.00;98.30;;;;;;6257089;22;19911;-80
2020/12/18 04:58:24;;;;;;;11.60;3.30;;;19.90;98.30;;;;;;6292243;22;20008;-78
2020/12/18 05:00:54;;;;;;;6.60;2.78;;;20.00;98.70;;;;;;6230147;22;20020;-79
2020/12/18 05:03:51;;;;;;;5.05;2.50;;;20.10;98.50;;;;;;6274962;22;20028;-78
2020/12/18 05:06:19;;;;;;;8.82;3.25;;;20.20;98.40;;;;;;6252824;22;20016;-80
2020/12/18 05:08:46;;;;;;;9.05;3.17;;;20.30;98.30;;;;;;6253776;22;20022;-79
2020/12/18 05:11:22;;;;;;;9.52;2.75;;;20.40;98.10;;;;;;6255654;22;20004;-80
2020/12/18 05:13:57;;;;;;;7.25;3.20;;;20.50;98.00;;;;;;6230848;22;20015;-79
2020/12/18 05:16:26;;;;;;;8.32;3.00;;;20.70;97.70;;;;;;6229313;22;20015;-79
2020/12/18 05:19:12;;;;;;;8.02;3.38;;;20.80;97.50;;;;;;6249561;22;20548;-78
2020/12/18 05:22:02;;;;;;;7.65;2.80;;;21.00;97.10;;;;;;6250795;22;20023;-78
2020/12/18 05:24:56;;;;;;;6.93;2.70;;;21.20;96.80;;;;;;6262424;22;20011;-79
2020/12/18 05:27:26;;;;;;;7.75;2.60;;;21.30;96.60;;;;;;6235504;22;20016;-80
2020/12/18 05:30:03;;;;;;;7.25;2.92;;;21.40;96.50;;;;;;6227072;22;20439;-80
2020/12/18 05:32:35;;;;;;;9.27;3.13;;;21.50;96.20;;;;;;6267043;22;20023;-78
2020/12/18 05:35:08;;;;;;;6.88;2.67;;;21.80;95.90;;;;;;6251739;22;20016;-78
2020/12/18 05:38:01;;;;;;;6.70;2.10;;;22.00;95.40;;;;;;6234103;22;20011;-77
2020/12/18 05:41:04;;;;;;;8.10;3.03;;;22.30;94.70;;;;;;6278966;22;20023;-81
2020/12/18 05:43:42;;;;;;;4.50;2.40;;;22.70;94.00;;;;;;6226324;22;20020;-81
2020/12/18 05:46:38;;;;;;;7.55;2.97;;;23.00;93.30;;;;;;6256089;22;20354;-80
2020/12/18 05:49:13;;;;;;;7.63;3.25;;;23.40;92.50;;;;;;6251023;22;20020;-81
2020/12/18 05:51:52;;;;;;;6.28;2.50;;;23.60;91.90;;;;;;6250194;22;20045;-81
2020/12/18 05:54:38;;;;;;;7.05;3.00;;;24.00;91.20;;;;;;6251399;22;20015;-80
2020/12/18 05:57:16;;;;;;;10.77;3.22;;;24.20;90.50;;;;;;6229199;22;20024;-81
2020/12/18 05:59:54;;;;;;;9.15;3.00;;;24.30;90.20;;;;;;6229866;22;20011;-81
2020/12/18 06:02:48;;;;;;;5.53;2.60;;;24.40;89.90;;;;;;6270387;22;20020;-80
2020/12/18 06:05:26;;;;;;;5.78;3.00;;;24.40;89.60;;;;;;6242550;22;20026;-79
2020/12/18 06:08:16;;;;;;;7.10;3.15;;;24.40;89.40;;;;;;6218449;22;20015;-80
2020/12/18 06:10:51;;;;;;;7.75;2.80;;;24.40;89.40;;;;;;6240697;22;20026;-81
2020/12/18 06:13:37;;;;;;;7.20;2.85;;;24.50;89.10;;;;;;6255359;22;20046;-82
2020/12/18 06:16:21;;;;;;;5.82;3.20;;;24.50;88.80;;;;;;6243299;22;20018;-81
2020/12/18 06:19:09;;;;;;;7.95;3.13;;;24.50;88.80;;;;;;6247384;22;20028;-82
2020/12/18 06:21:55;;;;;;;8.75;3.20;;;24.50;88.90;;;;;;6242846;22;20525;-80
2020/12/18 06:24:57;;;;;;;9.02;2.40;;;24.50;88.90;;;;;;6257519;22;20049;-80
2020/12/18 06:28:03;;;;;;;9.00;3.08;;;24.50;88.80;;;;;;6177221;23;20025;-81
2020/12/18 06:31:25;;;;;;;8.50;2.72;;;24.50;88.60;;;;;;6241186;22;20667;-80
2020/12/18 06:34:26;;;;;;;4.93;2.47;;;24.50;88.70;;;;;;6270732;22;20034;-81
2020/12/18 06:37:05;;;;;;;5.68;2.72;;;24.60;88.40;;;;;;6279680;22;20016;-79
2020/12/18 06:39:51;;;;;;;5.30;2.63;;;24.50;88.60;;;;;;6245186;22;20739;-83
2020/12/18 06:42:44;;;;;;;7.95;2.70;;;24.60;88.60;;;;;;6275743;22;20022;-79
2020/12/18 06:46:05;;;;;;;12.68;2.90;;;24.50;88.60;;;;;;6265498;22;20034;-79
2020/12/18 06:48:51;;;;;;;4.80;2.45;;;24.50;89.70;;;;;;6297017;22;20030;-79
2020/12/18 06:51:46;;;;;;;7.68;2.63;;;24.60;90.30;;;;;;6276161;22;20022;-79
2020/12/18 06:54:30;;;;;;;6.75;2.88;;;24.60;90.70;;;;;;6242153;22;20018;-79
2020/12/18 06:57:20;;;;;;;9.77;3.20;;;24.70;90.80;;;;;;6266085;22;20022;-78
2020/12/18 07:00:34;;;;;;;10.45;2.50;;;24.70;90.80;;;;;;6272902;22;20008;-79
2020/12/18 07:03:17;;;;;;;;;;;;;;;;;;;;;
2020/12/18 07:09:52;;;;;;;14.10;5.55;;;24.60;90.60;;;;;;6162303;23;20028;-79
2020/12/18 07:12:27;;;;;;;15.52;4.65;;;24.50;76.30;;;;;;6241484;22;20020;-79
2020/12/18 07:14:56;;;;;;;14.35;4.78;;;24.30;78.30;;;;;;6254297;22;20018;-78
2020/12/18 07:17:27;;;;;;;13.18;4.60;;;24.30;79.80;;;;;;6256862;22;20016;-81
2020/12/18 07:19:57;;;;;;;17.83;4.63;;;24.40;80.60;;;;;;6261320;22;20016;-81
2020/12/18 07:22:30;;;;;;;14.45;4.57;;;24.50;81.00;;;;;;6250043;22;20011;-80
2020/12/18 07:25:12;;;;;;;12.00;4.22;;;24.60;81.00;;;;;;6264378;22;20022;-79
2020/12/18 07:27:54;;;;;;;10.15;3.67;;;24.60;81.20;;;;;;6226127;22;20020;-81
2020/12/18 07:35:06;;;;;;;11.43;3.83;;;24.60;81.80;;;;;;6256918;22;20744;-81
2020/12/18 07:38:13;;;;;;;9.27;3.55;;;24.60;82.40;;;;;;6272430;22;20018;-79
2020/12/18 07:41:34;;;;;;;12.55;4.05;;;24.50;82.90;;;;;;6241881;22;20430;-79
2020/12/18 07:44:35;;;;;;;12.35;3.60;;;24.40;83.50;;;;;;6244261;22;20020;-81
2020/12/18 07:47:49;;;;;;;9.70;3.42;;;24.30;84.00;;;;;;6223415;22;20030;-79
2020/12/18 07:50:40;;;;;;;13.00;3.80;;;24.20;84.90;;;;;;6252279;22;20016;-82
2020/12/18 07:53:46;;;;;;;13.38;3.83;;;24.00;85.40;;;;;;6228008;22;20107;-82
2020/12/18 07:56:35;;;;;;;11.43;3.75;;;23.90;86.20;;;;;;6244785;22;20012;-82
2020/12/18 07:59:26;;;;;;;9.32;3.75;;;23.80;86.80;;;;;;6256558;22;20011;-80
2020/12/18 08:02:24;;;;;;;10.35;3.70;;;23.80;87.40;;;;;;6261687;22;20019;-80
2020/12/18 08:05:31;;;;;;;9.88;3.28;;;23.70;87.70;;;;;;6228907;22;20025;-82
2020/12/18 08:08:15;;;;;;;9.25;3.33;;;23.60;88.20;;;;;;6236129;22;20028;-80
2020/12/18 08:11:50;;;;;;;12.50;4.03;;;23.60;88.30;;;;;;6270856;22;20012;-79
2020/12/18 08:15:17;;;;;;;11.65;3.65;;;23.50;88.90;;;;;;6136163;23;20020;-82
2020/12/18 08:18:38;;;;;;;10.45;3.78;;;23.50;89.30;;;;;;6186912;23;20048;-80
2020/12/18 08:21:52;;;;;;;;;;;;;;;;;;;;;
2020/12/18 08:25:05;;;;;;;11.80;3.80;;;23.50;87.10;;;;;;6209785;23;20043;-80
2020/12/18 08:28:04;;;;;;;14.07;4.28;;;23.40;87.50;;;;;;6173466;23;20061;-80
2020/12/18 08:30:35;;;;;;;10.65;3.65;;;23.40;87.80;;;;;;6158580;23;20017;-80
2020/12/18 08:33:03;;;;;;;9.27;3.38;;;23.20;88.10;;;;;;6210172;22;20015;-81
2020/12/18 08:35:41;;;;;;;12.70;4.10;;;23.20;88.40;;;;;;6259307;22;20018;-82
2020/12/18 08:38:10;;;;;;;10.68;4.03;;;23.10;88.60;;;;;;6272802;22;20331;-80
2020/12/18 08:40:43;;;;;;;10.32;3.70;;;23.00;88.70;;;;;;6245371;22;20024;-81
2020/12/18 08:43:12;;;;;;;11.20;3.95;;;23.00;88.70;;;;;;6228367;23;20463;-80
2020/12/18 08:45:43;;;;;;;13.00;3.67;;;23.00;88.90;;;;;;6241866;22;20016;-82
2020/12/18 08:48:26;;;;;;;11.30;3.42;;;23.00;89.10;;;;;;6243756;22;20028;-84
2020/12/18 08:51:26;;;;;;;10.82;3.75;;;23.10;89.10;;;;;;6244639;22;20793;-81
2020/12/18 08:54:00;;;;;;;11.05;3.97;;;23.20;88.70;;;;;;6246586;22;20041;-82
2020/12/18 08:56:28;;;;;;;12.15;3.50;;;23.40;88.20;;;;;;6257309;22;20450;-82
2020/12/18 08:59:06;;;;;;;11.10;3.58;;;23.40;87.90;;;;;;6285771;22;20406;-82
2020/12/18 09:01:37;;;;;;;13.55;3.60;;;23.50;87.60;;;;;;6225024;22;20020;-82
2020/12/18 09:04:44;;;;;;;12.93;3.65;;;23.60;87.40;;;;;;6249117;22;20020;-80
2020/12/18 09:07:15;;;;;;;9.82;3.50;;;23.60;87.10;;;;;;6239944;22;20026;-79
2020/12/18 09:09:57;;;;;;;9.70;3.35;;;23.60;86.90;;;;;;6249475;22;20058;-82
2020/12/18 09:12:43;;;;;;;11.95;3.30;;;23.70;87.00;;;;;;6249073;22;20026;-79
2020/12/18 09:15:34;;;;;;;13.65;3.50;;;23.70;87.20;;;;;;6223527;22;20363;-80
2020/12/18 09:18:11;;;;;;;13.00;4.07;;;23.60;87.60;;;;;;6257317;22;20026;-79
2020/12/18 09:20:55;;;;;;;12.45;3.92;;;23.60;88.40;;;;;;6243932;22;20518;-80
2020/12/18 09:23:39;;;;;;;9.70;3.58;;;23.50;88.40;;;;;;6264117;22;20016;-78
2020/12/18 09:26:26;;;;;;;;;;;23.40;89.00;;;;;;6263905;22;20008;-81
2020/12/18 09:28:59;;;;;;;10.57;3.20;;;23.30;89.50;;;;;;6253280;22;19919;-80
2020/12/18 09:31:27;;;;;;;;;;;23.30;89.90;;;;;;6254483;22;20020;-83
2020/12/18 09:34:20;;;;;;;8.25;2.90;;;23.20;90.00;;;;;;6230663;22;19925;-82
2020/12/18 09:36:51;;;;;;;10.15;3.47;;;23.10;90.40;;;;;;6256227;22;20342;-82
2020/12/18 09:39:20;;;;;;;12.57;3.75;;;23.00;90.70;;;;;;6253261;22;20015;-79
2020/12/18 09:41:47;;;;;;;14.73;4.05;;;23.10;90.90;;;;;;6282345;22;20034;-83
2020/12/18 09:44:24;;;;;;;12.20;3.15;;;23.10;90.50;;;;;;6229141;22;20810;-83
2020/12/18 09:47:23;;;;;;;12.13;3.15;;;23.10;90.70;;;;;;6247413;22;20366;-82
2020/12/18 09:49:53;;;;;;;18.08;3.60;;;23.10;91.30;;;;;;6252166;22;20024;-79
2020/12/18 09:52:20;;;;;;;9.00;3.30;;;23.10;90.30;;;;;;6252981;22;20059;-81
2020/12/18 09:54:58;;;;;;;20.08;3.80;;;23.10;90.80;;;;;;6256108;22;20022;-85
2020/12/18 09:58:09;;;;;;;24.27;4.85;;;23.10;90.90;;;;;;6248088;22;20024;-83
2020/12/18 10:01:51;;;;;;;;;;;;;;;;;;;;;
2020/12/18 10:09:33;;;;;;;14.60;3.63;;;23.10;94.80;;;;;;6148815;23;20033;-81
2020/12/18 11:00:10;;;;;;;13.18;3.20;;;23.20;97.40;;;;;;6109382;23;20017;-82
2020/12/18 11:03:50;;;;;;;11.85;3.20;;;23.10;97.60;;;;;;6098222;23;20026;-85
2020/12/18 11:06:27;;;;;;;15.13;3.80;;;23.10;97.70;;;;;;6075245;23;20030;-84
2020/12/18 11:09:34;;;;;;;9.40;3.10;;;23.10;97.30;;;;;;6088754;23;20030;-81
2020/12/18 11:12:25;;;;;;;13.48;3.25;;;23.10;97.30;;;;;;6123376;23;20033;-79
2020/12/18 11:14:52;;;;;;;8.73;3.08;;;23.20;97.30;;;;;;6157587;23;20024;-81
